Time;durP1;ratioP1;P1;durP2;ratioP2;P2;SDS_P1;SDS_P2;PMS_P1;PMS_P2;Temp;Humidity;BMP_temperature;BMP_pressure;BME280_temperature;BME280_humidity;BME280_pressure;Samples;Min_cycle;Max_cycle;Signal;HPM_P1;HPM_P2
2023/09/08 00:04:53;;;;;;;9.38;6.20;;;;;;;17.40;100.00;101827.34;10436299;28;20045;-69
2023/09/08 00:09:53;;;;;;;9.82;6.65;;;;;;;17.32;100.00;101823.16;10435809;28;20045;-69
2023/09/08 00:14:54;;;;;;;9.63;6.80;;;;;;;17.24;100.00;101819.00;10434029;28;20045;-69
2023/09/08 00:19:56;;;;;;;9.70;7.28;;;;;;;17.16;100.00;101825.09;10435155;28;20037;-69
2023/09/08 00:24:57;;;;;;;9.73;6.93;;;;;;;17.05;100.00;101829.81;10438379;28;20037;-69
2023/09/08 00:29:58;;;;;;;8.95;7.10;;;;;;;16.91;100.00;101823.09;10436096;28;20045;-71
2023/09/08 00:34:58;;;;;;;11.38;7.07;;;;;;;16.80;100.00;101819.41;10438479;28;20063;-69
2023/09/08 00:39:59;;;;;;;11.98;7.57;;;;;;;16.70;100.00;101825.78;10432389;28;20049;-69
2023/09/08 00:44:59;;;;;;;11.02;7.55;;;;;;;16.67;100.00;101823.53;10437411;28;20064;-69
2023/09/08 00:50:00;;;;;;;9.80;7.20;;;;;;;16.64;100.00;101817.66;10431985;28;20037;-69
2023/09/08 00:55:01;;;;;;;14.40;7.80;;;;;;;16.62;100.00;101808.75;10422054;28;20087;-68
2023/09/08 01:00:04;;;;;;;13.85;8.15;;;;;;;16.57;100.00;101815.16;10426925;28;20037;-69
2023/09/08 01:05:05;;;;;;;12.07;7.97;;;;;;;16.45;100.00;101820.09;10436410;28;20036;-69
2023/09/08 01:10:06;;;;;;;12.55;8.32;;;;;;;16.34;100.00;101819.22;10414881;28;20045;-69
2023/09/08 01:15:07;;;;;;;12.07;8.68;;;;;;;16.26;100.00;101817.78;10435585;28;20098;-69
2023/09/08 01:20:21;;;;;;;10.10;8.15;;;;;;;16.23;100.00;101806.38;10432715;28;20555;-69
2023/09/08 01:25:22;;;;;;;11.05;8.73;;;;;;;16.24;100.00;101808.88;10434983;28;20425;-68
2023/09/08 01:30:23;;;;;;;13.93;9.27;;;;;;;16.24;100.00;101808.88;10432583;28;20057;-68
2023/09/08 01:35:24;;;;;;;11.60;8.35;;;;;;;16.13;100.00;101796.06;10437794;28;20040;-69
2023/09/08 01:40:25;;;;;;;12.15;8.45;;;;;;;16.16;100.00;101803.84;10424062;28;20433;-68
2023/09/08 01:45:25;;;;;;;13.38;9.48;;;;;;;16.06;100.00;101798.22;10442727;28;20040;-69
2023/09/08 01:50:26;;;;;;;11.50;8.95;;;;;;;15.91;100.00;101808.13;10441981;28;20400;-68
2023/09/08 01:55:26;;;;;;;14.23;9.65;;;;;;;15.80;100.00;101792.50;10439871;28;20033;-69
2023/09/08 02:00:26;;;;;;;12.63;8.23;;;;;;;15.72;100.00;101796.63;10442210;28;20041;-69
2023/09/08 02:05:27;;;;;;;10.80;8.77;;;;;;;15.60;100.00;101797.88;10439063;28;20041;-69
2023/09/08 02:10:27;;;;;;;12.55;9.30;;;;;;;15.53;100.00;101787.00;10444602;28;20037;-69
2023/09/08 02:15:28;;;;;;;15.05;9.52;;;;;;;15.44;100.00;101789.44;10437585;28;20036;-68
2023/09/08 02:20:28;;;;;;;12.90;9.38;;;;;;;15.40;100.00;101785.53;10421571;28;20045;-69
2023/09/08 02:25:29;;;;;;;13.40;9.88;;;;;;;15.33;100.00;101782.94;10441126;28;20075;-68
2023/09/08 02:30:29;;;;;;;16.58;9.63;;;;;;;15.30;100.00;101794.59;10437723;28;20038;-69
2023/09/08 02:35:30;;;;;;;12.80;9.57;;;;;;;15.25;100.00;101790.91;10441252;28;20041;-68
2023/09/08 02:40:30;;;;;;;14.38;9.85;;;;;;;15.21;100.00;101795.31;10439451;28;20096;-68
2023/09/08 02:45:31;;;;;;;16.17;10.05;;;;;;;15.18;100.00;101795.88;10440801;28;20386;-68
2023/09/08 02:50:31;;;;;;;12.95;9.65;;;;;;;15.09;100.00;101793.56;10443105;28;20083;-68
2023/09/08 02:55:32;;;;;;;17.38;10.93;;;;;;;15.03;100.00;101788.22;10440918;28;20826;-69
2023/09/08 03:00:32;;;;;;;15.27;10.65;;;;;;;14.95;100.00;101785.94;10437628;28;20041;-69
2023/09/08 03:05:33;;;;;;;12.50;9.60;;;;;;;14.91;100.00;101780.06;10439500;28;20045;-68
2023/09/08 03:10:36;;;;;;;16.73;10.40;;;;;;;14.88;100.00;101786.13;10436772;28;20045;-69
2023/09/08 03:15:36;;;;;;;13.60;9.77;;;;;;;14.81;100.00;101780.78;10441679;28;20059;-68
2023/09/08 03:20:37;;;;;;;17.30;10.75;;;;;;;14.78;100.00;101780.47;10437721;28;20045;-68
2023/09/08 03:25:37;;;;;;;17.60;10.27;;;;;;;14.63;100.00;101762.56;10432669;28;20042;-68
2023/09/08 03:30:38;;;;;;;14.43;10.57;;;;;;;14.74;100.00;101766.31;10441055;28;20052;-68
2023/09/08 03:35:38;;;;;;;14.88;10.23;;;;;;;14.71;100.00;101764.88;10431775;28;20045;-68
2023/09/08 03:40:39;;;;;;;17.05;11.32;;;;;;;14.70;100.00;101752.13;10439791;28;20059;-68
2023/09/08 03:45:39;;;;;;;14.65;11.63;;;;;;;14.71;100.00;101751.00;10434054;28;20076;-69
2023/09/08 03:50:40;;;;;;;20.58;10.95;;;;;;;14.70;100.00;101737.44;10438533;28;20045;-69
2023/09/08 03:55:40;;;;;;;15.05;11.10;;;;;;;14.74;100.00;101744.13;10416032;28;20044;-69
2023/09/08 04:00:41;;;;;;;14.77;11.20;;;;;;;14.76;100.00;101754.94;10433603;28;20083;-70
2023/09/08 04:05:41;;;;;;;14.98;10.70;;;;;;;14.72;100.00;101760.19;10435612;28;20041;-69
2023/09/08 04:10:42;;;;;;;17.52;12.02;;;;;;;14.71;100.00;101750.19;10437358;28;20103;-69
2023/09/08 04:15:42;;;;;;;17.23;11.93;;;;;;;14.66;100.00;101742.66;10433946;28;20041;-69
2023/09/08 04:20:43;;;;;;;17.25;11.32;;;;;;;14.60;100.00;101752.00;10438231;28;20133;-67
2023/09/08 04:25:43;;;;;;;17.25;12.73;;;;;;;14.53;100.00;101752.19;10436774;28;20060;-69
2023/09/08 04:30:44;;;;;;;18.13;13.02;;;;;;;14.44;100.00;101739.03;10438492;28;20044;-68
2023/09/08 04:35:44;;;;;;;19.90;12.98;;;;;;;14.33;100.00;101747.22;10431278;28;20452;-67
2023/09/08 04:40:47;;;;;;;17.50;13.13;;;;;;;14.30;100.00;101746.91;10438974;28;20041;-68
2023/09/08 04:45:48;;;;;;;20.17;13.35;;;;;;;14.26;100.00;101746.59;10427663;28;20034;-68
2023/09/08 04:50:48;;;;;;;17.30;13.23;;;;;;;14.21;100.00;101751.22;10437333;28;20033;-69
2023/09/08 04:55:49;;;;;;;20.23;13.93;;;;;;;14.15;100.00;101753.09;10434908;28;20040;-69
2023/09/08 05:00:49;;;;;;;16.92;13.30;;;;;;;14.11;100.00;101758.28;10435877;28;20076;-69
2023/09/08 05:05:50;;;;;;;18.45;14.15;;;;;;;14.09;100.00;101752.19;10433595;28;20037;-68
2023/09/08 05:10:50;;;;;;;19.58;13.63;;;;;;;14.06;100.00;101758.25;10437775;28;20064;-69
2023/09/08 05:15:52;;;;;;;18.70;14.57;;;;;;;14.03;100.00;101755.16;10443273;28;20041;-69
2023/09/08 05:20:53;;;;;;;19.40;14.38;;;;;;;13.99;100.00;101742.91;10441969;28;20709;-69
2023/09/08 05:25:53;;;;;;;19.92;13.60;;;;;;;14.02;100.00;101754.31;10443945;28;20070;-69
2023/09/08 05:30:54;;;;;;;21.52;15.18;;;;;;;14.03;100.00;101752.38;10422115;28;20548;-69
2023/09/08 05:35:54;;;;;;;19.90;15.20;;;;;;;14.04;100.00;101762.38;10444323;28;20086;-68
2023/09/08 05:40:55;;;;;;;23.83;15.25;;;;;;;14.09;100.00;101754.13;10438587;28;20071;-68
2023/09/08 05:45:55;;;;;;;22.65;14.95;;;;;;;14.19;100.00;101745.94;10445881;28;20052;-69
2023/09/08 05:50:56;;;;;;;19.38;14.95;;;;;;;14.28;100.00;101744.41;10435961;28;20059;-69
2023/09/08 05:55:56;;;;;;;23.33;16.15;;;;;;;14.40;100.00;101740.66;10435643;28;20045;-69
2023/09/08 06:00:57;;;;;;;21.52;15.20;;;;;;;14.55;100.00;101749.13;10443400;28;20393;-68
2023/09/08 06:05:57;;;;;;;19.20;14.00;;;;;;;14.66;100.00;101759.28;10438390;28;20416;-68
2023/09/08 06:10:57;;;;;;;20.05;14.85;;;;;;;14.82;100.00;101754.75;10441836;28;20041;-69
2023/09/08 06:15:58;;;;;;;20.75;14.13;;;;;;;15.20;100.00;101746.50;10440262;28;20033;-69
2023/09/08 06:20:58;;;;;;;18.20;13.85;;;;;;;15.71;100.00;101746.91;10440199;28;20088;-69
2023/09/08 06:25:59;;;;;;;17.52;11.90;;;;;;;16.20;100.00;101754.13;10437071;28;20135;-69
2023/09/08 06:31:00;;;;;;;15.20;11.40;;;;;;;16.67;100.00;101748.47;10440923;28;20559;-69
2023/09/08 06:36:00;;;;;;;15.38;11.68;;;;;;;17.06;100.00;101748.00;10438195;28;20045;-69
2023/09/08 06:41:01;;;;;;;16.38;11.20;;;;;;;17.47;100.00;101750.78;10441666;28;20048;-69
2023/09/08 06:46:14;;;;;;;13.35;10.25;;;;;;;17.75;100.00;101737.38;10438107;28;20033;-68
2023/09/08 06:51:14;;;;;;;14.73;10.02;;;;;;;17.95;100.00;101737.34;10435681;28;20459;-69
2023/09/08 06:56:15;;;;;;;13.43;11.32;;;;;;;18.18;100.00;101740.63;10441288;28;20083;-69
2023/09/08 07:01:15;;;;;;;14.27;9.68;;;;;;;18.38;100.00;101738.91;10436761;28;20048;-69
2023/09/08 07:06:16;;;;;;;13.48;10.65;;;;;;;18.54;100.00;101744.09;10443068;28;20059;-69
2023/09/08 07:11:16;;;;;;;13.25;10.25;;;;;;;18.73;100.00;101737.84;10429531;28;20098;-68
2023/09/08 07:16:17;;;;;;;16.45;9.63;;;;;;;18.68;100.00;101705.22;10426902;28;20089;-68
2023/09/08 07:21:17;;;;;;;15.55;9.27;;;;;;;19.07;100.00;101740.69;10420161;28;20037;-69
2023/09/08 07:26:18;;;;;;;12.88;10.23;;;;;;;19.22;100.00;101736.13;10425081;28;20373;-70
2023/09/08 07:31:18;;;;;;;12.77;8.70;;;;;;;19.39;100.00;101741.28;10426855;28;20052;-68
2023/09/08 07:36:19;;;;;;;11.70;8.70;;;;;;;19.51;100.00;101750.09;10437051;28;20053;-68
2023/09/08 07:41:19;;;;;;;9.98;7.85;;;;;;;19.62;100.00;101748.06;10437129;28;20124;-68
2023/09/08 07:46:20;;;;;;;10.73;8.15;;;;;;;19.86;100.00;101750.91;10438956;28;20040;-69
2023/09/08 07:51:20;;;;;;;9.90;6.72;;;;;;;20.03;100.00;101744.84;10434772;28;20064;-68
2023/09/08 07:56:21;;;;;;;10.15;7.68;;;;;;;20.12;100.00;101745.88;10429302;28;20033;-68
2023/09/08 08:01:21;;;;;;;10.27;7.95;;;;;;;20.31;100.00;101735.56;10417031;28;20033;-68
2023/09/08 08:06:21;;;;;;;11.43;7.78;;;;;;;20.48;100.00;101739.81;10425822;28;20042;-68
2023/09/08 08:11:23;;;;;;;10.35;7.28;;;;;;;20.63;100.00;101730.41;10428264;28;20034;-68
2023/09/08 08:16:24;;;;;;;10.57;5.60;;;;;;;20.73;100.00;101733.06;10420026;28;20045;-68
2023/09/08 08:21:24;;;;;;;8.38;6.53;;;;;;;20.96;100.00;101739.72;10413898;28;20037;-69
2023/09/08 08:26:28;;;;;;;12.80;6.72;;;;;;;21.19;100.00;101742.69;10419097;28;20033;-69
2023/09/08 08:31:28;;;;;;;12.50;6.70;;;;;;;21.45;100.00;101729.97;10421321;28;20125;-69
2023/09/08 08:36:29;;;;;;;8.50;6.28;;;;;;;21.77;100.00;101736.69;10436256;28;20057;-69
2023/09/08 08:41:29;;;;;;;9.32;5.38;;;;;;;22.07;100.00;101728.78;10423044;28;20041;-68
2023/09/08 08:46:30;;;;;;;8.60;5.05;;;;;;;22.46;100.00;101727.44;10431680;28;20045;-69
2023/09/08 08:51:30;;;;;;;10.45;5.43;;;;;;;22.85;100.00;101731.63;10439089;28;20045;-67
2023/09/08 08:56:35;;;;;;;9.23;6.13;;;;;;;23.22;100.00;101729.63;10447792;28;20051;-69
2023/09/08 09:01:36;;;;;;;7.25;5.32;;;;;;;23.57;100.00;101731.50;10443236;28;20052;-70
2023/09/08 09:06:37;;;;;;;7.40;5.28;;;;;;;23.81;100.00;101727.50;10449544;28;20141;-70
2023/09/08 09:11:37;;;;;;;5.65;4.70;;;;;;;24.08;100.00;101717.19;10445796;28;20041;-69
2023/09/08 09:16:44;;;;;;;10.88;4.35;;;;;;;24.41;100.00;101725.22;10449938;28;20056;-69
2023/09/08 09:21:47;;;;;;;6.53;5.22;;;;;;;24.72;100.00;101720.34;10430508;28;20048;-69
2023/09/08 09:26:51;;;;;;;10.05;5.22;;;;;;;24.93;100.00;101709.22;10438807;28;20037;-70
2023/09/08 09:32:10;;;;;;;14.23;6.20;;;;;;;25.18;100.00;101710.38;10446023;28;20038;-69
2023/09/08 09:37:10;;;;;;;6.93;4.53;;;;;;;25.44;100.00;101711.50;10449833;28;20124;-70
2023/09/08 09:42:11;;;;;;;6.68;4.22;;;;;;;25.66;100.00;101702.00;10449298;28;20067;-69
2023/09/08 09:47:12;;;;;;;7.10;4.10;;;;;;;25.88;100.00;101710.19;10449965;28;20721;-70
2023/09/08 09:52:13;;;;;;;6.90;4.72;;;;;;;25.92;100.00;101699.06;10427587;28;20490;-70
2023/09/08 09:57:14;;;;;;;4.30;3.67;;;;;;;26.15;100.00;101697.63;10445164;28;20037;-70
2023/09/08 10:02:14;;;;;;;5.78;4.13;;;;;;;26.43;100.00;101685.00;10437828;28;20064;-70
2023/09/08 10:07:16;;;;;;;8.25;4.43;;;;;;;26.59;100.00;101682.44;10428138;28;20096;-70
2023/09/08 10:12:16;;;;;;;7.13;3.75;;;;;;;26.82;100.00;101680.91;10438781;28;20047;-70
2023/09/08 10:17:20;;;;;;;7.13;4.00;;;;;;;27.04;100.00;101674.06;10436498;28;20034;-70
2023/09/08 10:22:22;;;;;;;7.70;4.22;;;;;;;27.29;100.00;101662.84;10442836;28;20064;-70
2023/09/08 10:27:23;;;;;;;6.18;3.63;;;;;;;27.47;100.00;101653.00;10436532;28;20042;-70
2023/09/08 10:32:24;;;;;;;5.20;4.20;;;;;;;27.73;100.00;101646.97;10424251;28;20032;-71
2023/09/08 10:37:25;;;;;;;8.02;3.50;;;;;;;27.91;100.00;101641.94;10421140;28;20048;-71
2023/09/08 10:42:27;;;;;;;4.97;3.90;;;;;;;28.06;100.00;101636.75;10438418;28;20066;-70
2023/09/08 10:47:34;;;;;;;5.35;3.72;;;;;;;28.26;100.00;101647.09;10433833;28;20030;-71
2023/09/08 10:52:35;;;;;;;6.28;3.75;;;;;;;28.52;100.00;101643.03;10441274;28;20045;-70
2023/09/08 10:57:35;;;;;;;6.22;3.70;;;;;;;28.76;100.00;101633.63;10420809;28;20060;-69
2023/09/08 11:02:36;;;;;;;10.18;3.90;;;;;;;28.96;100.00;101638.25;10440163;28;20048;-70
2023/09/08 11:07:37;;;;;;;7.30;3.30;;;;;;;29.20;100.00;101647.03;10438416;28;20068;-70
2023/09/08 11:12:37;;;;;;;4.25;3.35;;;;;;;29.32;100.00;101642.09;10423692;28;20037;-70
2023/09/08 11:17:41;;;;;;;4.22;3.33;;;;;;;29.17;98.02;101629.56;10427491;28;20048;-72
2023/09/08 11:22:42;;;;;;;6.70;4.03;;;;;;;29.41;98.39;101629.75;10436689;28;20136;-70
2023/09/08 11:27:44;;;;;;;5.05;3.45;;;;;;;29.70;98.88;101629.31;10439349;28;20044;-70
2023/09/08 11:32:45;;;;;;;4.60;3.33;;;;;;;30.03;97.66;101625.22;10417831;28;20041;-70
2023/09/08 11:37:46;;;;;;;5.35;3.80;;;;;;;30.17;92.67;101610.53;10442545;28;20048;-70
2023/09/08 11:42:46;;;;;;;4.90;3.80;;;;;;;30.24;93.18;101619.22;10431051;28;20079;-71
2023/09/08 11:47:49;;;;;;;4.78;3.10;;;;;;;30.37;85.94;101597.22;10439094;28;20041;-70
2023/09/08 11:52:51;;;;;;;8.02;4.75;;;;;;;30.59;85.58;101589.94;10434399;28;20063;-71
2023/09/08 11:57:54;;;;;;;5.38;3.72;;;;;;;31.14;88.19;101598.34;10421598;28;20413;-70
2023/09/08 12:02:55;;;;;;;4.43;3.55;;;;;;;32.07;84.43;101590.56;10438407;28;20057;-70
2023/09/08 12:07:56;;;;;;;4.13;3.72;;;;;;;33.04;81.38;101584.00;10435772;28;20048;-69
2023/09/08 12:13:00;;;;;;;3.50;3.03;;;;;;;33.68;76.51;101577.28;10436427;28;20033;-68
2023/09/08 12:18:01;;;;;;;4.68;3.58;;;;;;;34.49;75.15;101586.72;10433880;28;20041;-69
2023/09/08 12:23:07;;;;;;;4.90;3.72;;;;;;;35.24;72.71;101574.66;10434321;28;20056;-69
2023/09/08 12:28:07;;;;;;;7.00;3.97;;;;;;;35.37;66.42;101555.88;10435214;28;20533;-68
2023/09/08 12:33:08;;;;;;;5.20;3.85;;;;;;;35.73;65.46;101561.56;10437579;28;20048;-69
2023/09/08 12:38:09;;;;;;;6.53;3.72;;;;;;;35.82;65.79;101547.63;10435617;28;20540;-69
2023/09/08 12:43:09;;;;;;;7.50;3.88;;;;;;;35.97;60.42;101532.03;10434553;28;20045;-69
2023/09/08 12:48:10;;;;;;;4.32;3.92;;;;;;;35.83;58.79;101525.53;10434523;28;20540;-69
2023/09/08 12:53:10;;;;;;;9.82;4.40;;;;;;;36.32;62.46;101544.63;10432782;28;20038;-69
2023/09/08 12:58:11;;;;;;;5.70;3.72;;;;;;;36.49;59.26;101534.28;10438462;28;20037;-70
2023/09/08 13:03:11;;;;;;;7.32;3.80;;;;;;;36.52;59.93;101526.91;10433548;28;20452;-70
2023/09/08 13:08:15;;;;;;;6.55;3.70;;;;;;;36.89;60.21;101534.06;10440226;28;20048;-69
2023/09/08 13:13:15;;;;;;;5.53;3.35;;;;;;;36.59;57.78;101517.41;10424028;28;20064;-69
2023/09/08 13:18:15;;;;;;;3.80;3.40;;;;;;;36.94;57.56;101525.00;10434910;28;20064;-70
2023/09/08 13:23:16;;;;;;;5.00;3.65;;;;;;;37.07;55.55;101506.03;10426565;28;20052;-70
2023/09/08 13:28:16;;;;;;;9.88;4.10;;;;;;;37.19;55.31;101513.34;10435826;28;20030;-71
2023/09/08 13:33:17;;;;;;;6.97;4.07;;;;;;;37.09;56.35;101515.03;10440414;28;20049;-69
2023/09/08 13:38:17;;;;;;;4.40;3.95;;;;;;;37.10;54.32;101499.47;10443979;28;20088;-69
2023/09/08 13:43:18;;;;;;;5.45;3.92;;;;;;;37.45;55.30;101486.00;10441489;28;20033;-68
2023/09/08 13:48:18;;;;;;;7.65;4.20;;;;;;;37.55;53.21;101481.41;10442151;28;20048;-70
2023/09/08 13:53:19;;;;;;;6.03;4.30;;;;;;;37.82;53.86;101490.13;10442191;28;20044;-69
2023/09/08 13:58:19;;;;;;;3.90;3.50;;;;;;;37.89;51.70;101483.47;10439291;28;20068;-70
2023/09/08 14:03:20;;;;;;;5.60;3.67;;;;;;;38.16;54.04;101492.19;10440359;28;20044;-69
2023/09/08 14:08:20;;;;;;;5.00;3.30;;;;;;;38.18;53.95;101492.56;10444571;28;20037;-70
2023/09/08 14:13:21;;;;;;;7.82;4.05;;;;;;;38.21;51.09;101485.97;10429659;28;20030;-70
2023/09/08 14:18:21;;;;;;;4.60;3.58;;;;;;;38.38;51.78;101489.03;10423197;28;20048;-69
2023/09/08 14:23:21;;;;;;;6.68;4.13;;;;;;;38.34;51.38;101491.97;10420089;28;20048;-68
2023/09/08 14:28:22;;;;;;;4.80;3.70;;;;;;;38.47;51.19;101486.41;10421266;28;20042;-68
2023/09/08 14:33:22;;;;;;;4.78;4.28;;;;;;;38.44;53.30;101499.63;10427054;28;20033;-69
2023/09/08 14:38:23;;;;;;;4.53;4.13;;;;;;;37.90;50.07;101471.56;10422599;28;20552;-71
2023/09/08 14:43:24;;;;;;;4.30;3.83;;;;;;;37.55;54.14;101496.56;10372067;28;20087;-69
2023/09/08 14:48:25;;;;;;;4.47;4.07;;;;;;;37.03;52.42;101482.28;10431497;28;20037;-70
2023/09/08 14:53:27;;;;;;;4.55;3.80;;;;;;;36.61;53.10;101481.38;10438402;28;20033;-69
2023/09/08 14:58:33;;;;;;;5.97;3.65;;;;;;;36.31;51.49;101470.50;10439537;28;20412;-69
2023/09/08 15:03:34;;;;;;;5.15;3.53;;;;;;;35.97;51.71;101469.00;10438122;28;20048;-69
2023/09/08 15:08:35;;;;;;;4.75;3.88;;;;;;;36.04;53.95;101467.34;10438626;28;20501;-69
2023/09/08 15:13:35;;;;;;;5.25;4.10;;;;;;;35.52;55.89;101477.31;10434938;28;20046;-69
2023/09/08 15:18:35;;;;;;;6.60;4.47;;;;;;;34.91;56.61;101476.50;10430264;28;20045;-70
2023/09/08 15:23:36;;;;;;;8.02;3.20;;;;;;;34.38;56.34;101483.78;10435710;28;20049;-69
2023/09/08 15:28:38;;;;;;;6.25;4.28;;;;;;;34.13;58.49;101487.38;10442049;28;20044;-68
2023/09/08 15:33:38;;;;;;;4.45;3.30;;;;;;;34.06;56.52;101470.16;10435506;28;20041;-69
2023/09/08 15:38:40;;;;;;;5.43;3.38;;;;;;;33.73;61.15;101488.38;10446054;28;20040;-69
2023/09/08 15:43:40;;;;;;;5.60;3.22;;;;;;;32.91;56.96;101472.25;10440695;28;20038;-69
2023/09/08 15:48:41;;;;;;;6.13;3.38;;;;;;;32.13;59.04;101477.94;10438460;28;20528;-68
2023/09/08 15:53:41;;;;;;;5.57;3.90;;;;;;;31.37;62.09;101488.22;10433842;28;20057;-69
2023/09/08 15:58:43;;;;;;;4.75;3.55;;;;;;;30.56;66.23;101506.28;10435803;28;20045;-68
2023/09/08 16:03:43;;;;;;;5.13;4.03;;;;;;;30.13;68.41;101510.25;10435915;28;20037;-68
2023/09/08 16:08:44;;;;;;;11.65;5.80;;;;;;;29.63;68.58;101497.78;10435582;28;20033;-69
2023/09/08 16:13:45;;;;;;;5.43;4.25;;;;;;;29.32;70.39;101510.81;10435381;28;20049;-68
2023/09/08 16:18:45;;;;;;;8.13;4.95;;;;;;;28.97;74.29;101522.88;10418035;28;20057;-68
2023/09/08 16:23:46;;;;;;;7.93;5.55;;;;;;;28.79;75.65;101516.72;10434736;28;20508;-69
2023/09/08 16:28:47;;;;;;;10.52;6.18;;;;;;;28.54;77.37;101521.72;10420925;28;20090;-69
2023/09/08 16:33:48;;;;;;;8.25;5.20;;;;;;;28.28;78.50;101522.97;10433311;28;20127;-69
2023/09/08 16:38:48;;;;;;;4.68;3.75;;;;;;;27.98;79.45;101523.31;10437162;28;20460;-69
2023/09/08 16:43:49;;;;;;;5.22;3.75;;;;;;;27.70;84.36;101525.22;10424531;28;20493;-71
2023/09/08 16:48:49;;;;;;;6.85;4.50;;;;;;;27.51;87.06;101525.84;10437968;28;20068;-71
2023/09/08 16:54:08;;;;;;;5.47;4.32;;;;;;;27.29;90.64;101538.47;10427795;28;20042;-71
2023/09/08 16:59:27;;;;;;;8.00;4.25;;;;;;;27.08;90.18;101536.53;10435865;28;20045;-70
2023/09/08 17:04:46;;;;;;;7.43;4.05;;;;;;;26.87;97.95;101535.75;10426285;28;20033;-71
2023/09/08 17:10:05;;;;;;;7.05;4.22;;;;;;;26.46;100.00;101543.97;10437498;28;20033;-71
2023/09/08 17:15:24;;;;;;;4.75;3.58;;;;;;;26.00;100.00;101553.50;10433128;28;20037;-70
2023/09/08 17:20:43;;;;;;;5.47;3.88;;;;;;;25.59;100.00;101550.25;10450204;28;20045;-71
2023/09/08 17:26:02;;;;;;;5.78;4.70;;;;;;;25.22;100.00;101560.38;10385269;28;20045;-71
2023/09/08 17:31:22;;;;;;;4.57;3.95;;;;;;;24.89;100.00;101560.97;10446725;28;20049;-70
2023/09/08 17:36:41;;;;;;;5.60;3.72;;;;;;;24.58;100.00;101567.66;10441892;28;20747;-70
2023/09/08 17:42:00;;;;;;;7.07;4.28;;;;;;;24.25;100.00;101562.50;10444492;28;20033;-70
2023/09/08 17:47:19;;;;;;;6.28;4.30;;;;;;;23.97;100.00;101570.41;10354540;28;20047;-70
2023/09/08 17:52:40;;;;;;;5.50;4.45;;;;;;;23.72;100.00;101570.00;10359623;28;20046;-71
2023/09/08 17:57:59;;;;;;;5.20;4.10;;;;;;;23.51;100.00;101569.78;10402977;28;20132;-71
2023/09/08 18:03:18;;;;;;;7.72;4.93;;;;;;;23.28;100.00;101571.84;10362133;28;20034;-70
2023/09/08 18:08:37;;;;;;;7.78;4.97;;;;;;;23.04;100.00;101572.22;10363808;28;20050;-68
2023/09/08 18:13:58;;;;;;;7.93;5.50;;;;;;;22.80;100.00;101578.16;10439683;28;20037;-68
2023/09/08 18:19:17;;;;;;;9.00;5.55;;;;;;;22.61;100.00;101574.72;10439822;28;20044;-68
2023/09/08 18:24:36;;;;;;;7.47;5.20;;;;;;;22.43;100.00;101584.97;10441438;28;20049;-68
2023/09/08 18:29:55;;;;;;;8.77;5.85;;;;;;;22.28;100.00;101587.03;10442403;28;20033;-68
2023/09/08 18:35:14;;;;;;;9.10;6.10;;;;;;;22.11;100.00;101586.81;10439619;28;20037;-69
2023/09/08 18:40:33;;;;;;;8.20;4.90;;;;;;;21.93;100.00;101581.06;10420903;28;20056;-68
2023/09/08 18:45:52;;;;;;;6.93;5.28;;;;;;;21.76;100.00;101590.09;10436022;28;20097;-67
2023/09/08 18:51:12;;;;;;;6.53;4.95;;;;;;;21.62;100.00;101594.03;10444983;28;20060;-68
2023/09/08 18:56:32;;;;;;;6.80;5.22;;;;;;;21.45;100.00;101605.88;10425775;28;20041;-68
2023/09/08 19:01:52;;;;;;;5.82;5.28;;;;;;;21.33;100.00;101610.00;10440341;28;20033;-68
2023/09/08 19:07:11;;;;;;;8.25;6.03;;;;;;;21.16;100.00;101610.56;10441707;28;20069;-68
2023/09/08 19:12:30;;;;;;;6.97;5.68;;;;;;;21.07;100.00;101611.59;10432609;28;20035;-68
2023/09/08 19:17:50;;;;;;;8.15;6.18;;;;;;;20.99;100.00;101615.94;10442907;28;20033;-68
2023/09/08 19:23:10;;;;;;;8.52;5.85;;;;;;;20.94;100.00;101613.25;10437622;28;20042;-68
2023/09/08 19:28:29;;;;;;;12.52;6.55;;;;;;;20.82;100.00;101615.69;10349666;28;20046;-68
2023/09/08 19:33:49;;;;;;;10.48;6.70;;;;;;;20.70;100.00;101618.97;10363462;28;20031;-68
2023/09/08 19:39:08;;;;;;;9.82;7.15;;;;;;;20.53;100.00;101611.09;10353376;28;20046;-69
2023/09/08 19:44:28;;;;;;;11.27;7.30;;;;;;;20.51;100.00;101616.16;10392152;28;20474;-71
2023/09/08 19:49:47;;;;;;;11.20;6.85;;;;;;;20.38;100.00;101605.72;10381483;28;20058;-70
2023/09/08 19:55:07;;;;;;;9.20;6.32;;;;;;;20.35;100.00;101613.56;10442883;28;20041;-70
2023/09/08 20:00:26;;;;;;;9.27;6.07;;;;;;;20.28;100.00;101607.53;10435978;28;20045;-70
2023/09/08 20:05:45;;;;;;;11.73;6.80;;;;;;;20.23;100.00;101604.81;10359673;28;20426;-70
2023/09/08 20:11:04;;;;;;;10.68;6.25;;;;;;;20.20;100.00;101618.59;10391392;28;20038;-68
2023/09/08 20:16:23;;;;;;;8.32;6.85;;;;;;;20.15;100.00;101609.13;10398402;28;20038;-69
2023/09/08 20:21:42;;;;;;;9.00;6.20;;;;;;;20.07;100.00;101620.13;10407338;28;20128;-68
2023/09/08 20:27:01;;;;;;;10.90;7.15;;;;;;;19.99;100.00;101609.63;10428979;28;20037;-68
2023/09/08 20:32:20;;;;;;;10.10;7.78;;;;;;;19.91;100.00;101611.97;10436267;28;20037;-68
2023/09/08 20:37:39;;;;;;;13.73;8.55;;;;;;;19.82;100.00;101616.53;10427810;28;20116;-69
2023/09/08 20:42:58;;;;;;;11.98;7.60;;;;;;;19.74;100.00;101603.22;10438082;28;20041;-69
2023/09/08 20:48:18;;;;;;;9.05;6.90;;;;;;;19.62;100.00;101605.63;10425592;28;20041;-68
2023/09/08 20:53:41;;;;;;;12.65;8.15;;;;;;;19.52;100.00;101607.38;10393258;28;20041;-69
2023/09/08 20:59:00;;;;;;;9.13;6.53;;;;;;;19.48;100.00;101605.50;10352784;28;20086;-69
2023/09/08 21:04:19;;;;;;;12.45;6.95;;;;;;;19.39;100.00;101601.66;10351378;28;20085;-69
2023/09/08 21:09:38;;;;;;;8.90;6.80;;;;;;;19.29;100.00;101600.66;10392390;28;20053;-70
2023/09/08 21:14:57;;;;;;;11.15;7.30;;;;;;;19.21;100.00;101594.91;10392459;28;20493;-69
2023/09/08 21:20:16;;;;;;;10.98;6.68;;;;;;;19.12;100.00;101592.75;10392764;28;20049;-69
2023/09/08 21:25:35;;;;;;;14.50;7.82;;;;;;;18.80;100.00;101550.66;10387709;28;20053;-68
2023/09/08 21:31:07;;;;;;;10.73;8.20;;;;;;;18.93;100.00;101592.66;10388456;28;20034;-69
2023/09/08 21:36:26;;;;;;;11.10;8.32;;;;;;;18.87;100.00;101584.63;10391268;28;20038;-69
2023/09/08 21:41:45;;;;;;;15.13;10.93;;;;;;;18.85;100.00;101586.84;10392564;28;20049;-69
2023/09/08 21:47:04;;;;;;;13.10;9.77;;;;;;;18.75;100.00;101582.19;10349848;28;20526;-69
2023/09/08 21:52:24;;;;;;;16.90;9.52;;;;;;;18.66;100.00;101590.34;10351289;28;20034;-68
2023/09/08 21:57:43;;;;;;;14.52;9.85;;;;;;;18.59;100.00;101581.47;10408790;28;20494;-69
2023/09/08 22:03:02;;;;;;;14.80;9.52;;;;;;;18.51;100.00;101585.72;10405012;28;20045;-68
2023/09/08 22:08:22;;;;;;;13.73;9.38;;;;;;;18.49;100.00;101589.94;10439328;28;20033;-69
2023/09/08 22:13:22;;;;;;;16.80;9.80;;;;;;;18.45;100.00;101588.84;10441348;28;20089;-69
2023/09/08 22:18:22;;;;;;;12.43;9.50;;;;;;;18.39;100.00;101584.44;10442443;28;20045;-69
2023/09/08 22:23:24;;;;;;;12.73;9.38;;;;;;;18.31;100.00;101589.50;10443124;28;20410;-68
2023/09/08 22:28:25;;;;;;;17.33;9.30;;;;;;;18.26;100.00;101595.09;10441208;28;20029;-68
2023/09/08 22:33:25;;;;;;;14.48;10.65;;;;;;;18.21;100.00;101592.38;10448712;28;20151;-69
2023/09/08 22:38:26;;;;;;;17.05;10.13;;;;;;;18.10;100.00;101579.59;10437690;28;20038;-68
2023/09/08 22:43:27;;;;;;;15.50;10.63;;;;;;;18.11;100.00;101590.47;10408429;28;20037;-69
2023/09/08 22:48:27;;;;;;;13.43;10.00;;;;;;;18.05;100.00;101590.78;10427805;28;20045;-69
2023/09/08 22:53:28;;;;;;;15.23;9.63;;;;;;;17.98;100.00;101590.25;10447302;28;20037;-69
2023/09/08 22:58:40;;;;;;;13.15;9.73;;;;;;;17.84;100.00;101579.75;10422963;28;20033;-69
2023/09/08 23:03:41;;;;;;;17.38;10.40;;;;;;;17.81;100.00;101585.03;10376621;28;20137;-69